Time;durP1;ratioP1;P1;durP2;ratioP2;P2;SDS_P1;SDS_P2;PMS_P1;PMS_P2;Temp;Humidity;BMP_temperature;BMP_pressure;BME280_temperature;BME280_humidity;BME280_pressure;Samples;Min_cycle;Max_cycle;Signal;HPM_P1;HPM_P2
2022/10/14 00:01:19;;;;;;;243.13;32.03;;;11.60;99.90;;;;;;5070726;28;20121;-79
2022/10/14 00:03:45;;;;;;;232.95;28.58;;;11.60;99.90;;;;;;5070072;28;20040;-80
2022/10/14 00:06:13;;;;;;;147.40;23.95;;;11.60;99.90;;;;;;5070520;28;20120;-78
2022/10/14 00:08:40;;;;;;;76.55;21.42;;;11.60;99.90;;;;;;5070187;28;20044;-80
2022/10/14 00:11:13;;;;;;;52.63;23.10;;;11.60;99.90;;;;;;5070303;28;20123;-80
2022/10/14 00:13:39;;;;;;;35.97;20.45;;;11.60;99.90;;;;;;5070006;28;20467;-79
2022/10/14 00:16:06;;;;;;;107.53;24.50;;;11.60;99.90;;;;;;5070526;28;20091;-81
2022/10/14 00:18:32;;;;;;;63.40;22.90;;;11.60;99.90;;;;;;5070133;28;20443;-81
2022/10/14 00:21:00;;;;;;;79.10;21.27;;;11.60;99.90;;;;;;5070376;28;20082;-80
2022/10/14 00:23:26;;;;;;;77.65;20.42;;;11.60;99.90;;;;;;5069996;28;20068;-80
2022/10/14 00:25:52;;;;;;;118.93;19.80;;;11.60;99.90;;;;;;5069875;28;20044;-81
2022/10/14 00:28:19;;;;;;;79.60;18.17;;;12.20;99.90;;;;;;5070509;28;20412;-79
2022/10/14 00:30:58;;;;;;;136.80;19.90;;;11.60;99.90;;;;;;5070226;28;20097;-80
2022/10/14 00:33:24;;;;;;;39.38;17.50;;;11.60;99.90;;;;;;5069920;28;20059;-80
2022/10/14 00:35:57;;;;;;;91.90;18.90;;;11.60;99.90;;;;;;5069490;28;20041;-79
2022/10/14 00:38:23;;;;;;;50.85;15.65;;;11.50;99.90;;;;;;5070153;28;20051;-81
2022/10/14 00:40:49;;;;;;;78.72;17.52;;;11.50;99.90;;;;;;5069773;28;20040;-80
2022/10/14 00:43:15;;;;;;;69.72;15.52;;;11.50;99.90;;;;;;5064816;28;20440;-80
2022/10/14 00:45:40;;;;;;;64.10;16.77;;;11.50;99.90;;;;;;5049908;28;20385;-79
2022/10/14 00:48:07;;;;;;;46.75;17.27;;;11.70;99.90;;;;;;5050255;28;20052;-79
2022/10/14 00:50:34;;;;;;;72.15;16.20;;;11.50;99.90;;;;;;5050142;28;20373;-79
2022/10/14 00:53:00;;;;;;;45.85;15.85;;;11.50;99.90;;;;;;5051398;28;20056;-78
2022/10/14 00:55:27;;;;;;;36.03;16.05;;;11.50;99.90;;;;;;5056185;28;20446;-80
2022/10/14 00:57:53;;;;;;;106.70;18.52;;;11.50;99.90;;;;;;5049497;28;20041;-79
2022/10/14 01:00:19;;;;;;;100.63;15.57;;;11.50;99.90;;;;;;5049860;28;20075;-79
2022/10/14 01:02:46;;;;;;;79.00;13.00;;;11.40;99.90;;;;;;5049873;28;20041;-79
2022/10/14 01:05:15;;;;;;;51.85;13.23;;;11.40;99.90;;;;;;5064432;28;20376;-80
2022/10/14 01:08:04;;;;;;;111.07;14.73;;;11.70;99.90;;;;;;5069694;28;20519;-80
2022/10/14 01:10:36;;;;;;;60.75;14.57;;;11.40;99.90;;;;;;5069738;28;20491;-82
2022/10/14 01:13:07;;;;;;;30.40;13.07;;;11.40;99.90;;;;;;5069229;28;20050;-81
2022/10/14 01:15:39;;;;;;;18.75;11.65;;;11.30;99.90;;;;;;5069317;28;20051;-78
2022/10/14 01:18:28;;;;;;;125.38;14.90;;;11.30;99.90;;;;;;5069527;28;20496;-81
2022/10/14 01:21:19;;;;;;;26.45;12.35;;;11.30;99.90;;;;;;5069443;28;20061;-78
2022/10/14 01:24:04;;;;;;;108.45;14.57;;;11.30;99.90;;;;;;5069740;28;20048;-79
2022/10/14 01:26:32;;;;;;;;;;;11.30;99.90;;;;;;5073756;28;20053;-78
2022/10/14 01:29:23;;;;;;;27.65;9.95;;;11.30;99.90;;;;;;5073122;28;20011;-79
2022/10/14 01:32:27;;;;;;;44.08;11.60;;;11.70;99.90;;;;;;5073743;28;20045;-78
2022/10/14 01:35:08;;;;;;;66.35;14.20;;;11.20;99.90;;;;;;5073312;28;20266;-80
2022/10/14 01:37:38;;;;;;;99.13;13.43;;;11.10;99.90;;;;;;5073137;28;20041;-79
2022/10/14 01:40:13;;;;;;;32.25;10.60;;;11.30;99.90;;;;;;5073513;28;20041;-79
2022/10/14 01:42:41;;;;;;;84.35;13.07;;;11.10;99.90;;;;;;5073028;28;20105;-79
2022/10/14 01:45:15;;;;;;;67.32;10.65;;;11.10;99.90;;;;;;5073066;28;20053;-79
2022/10/14 01:47:42;;;;;;;53.83;11.15;;;11.10;99.90;;;;;;5073295;28;20074;-80
2022/10/14 01:50:13;;;;;;;156.32;14.32;;;11.10;99.90;;;;;;5073479;28;20041;-78
2022/10/14 01:53:08;;;;;;;63.47;11.00;;;11.30;99.90;;;;;;5071900;28;20048;-78
2022/10/14 01:55:38;;;;;;;193.68;14.40;;;11.00;99.90;;;;;;5053447;28;20049;-79
2022/10/14 01:58:07;;;;;;;133.95;11.75;;;11.00;99.90;;;;;;5053156;28;20041;-79
2022/10/14 02:00:32;;;;;;;62.47;9.85;;;11.00;99.90;;;;;;5053669;28;20702;-78
2022/10/14 02:02:58;;;;;;;34.42;9.23;;;10.90;99.90;;;;;;5058908;28;20123;-80
2022/10/14 02:05:23;;;;;;;88.78;11.05;;;10.90;99.90;;;;;;5071667;28;20056;-81
2022/10/14 02:07:59;;;;;;;91.30;11.60;;;10.90;99.90;;;;;;5071504;28;20056;-78
2022/10/14 02:11:00;;;;;;;52.75;10.13;;;10.90;99.90;;;;;;5070065;28;20041;-78
2022/10/14 02:13:43;;;;;;;58.25;10.93;;;10.90;99.90;;;;;;5069911;28;20052;-79
2022/10/14 02:16:26;;;;;;;190.25;13.18;;;10.90;99.90;;;;;;5072083;28;20048;-79
2022/10/14 02:19:05;;;;;;;193.65;15.23;;;10.80;99.90;;;;;;5057750;28;20396;-80
2022/10/14 02:21:30;;;;;;;143.43;13.20;;;10.80;99.90;;;;;;5051644;28;20381;-80
2022/10/14 02:24:08;;;;;;;174.07;14.20;;;10.80;99.90;;;;;;5051334;28;20067;-80
2022/10/14 02:26:37;;;;;;;111.07;12.45;;;10.80;99.90;;;;;;5071401;28;20420;-80
2022/10/14 02:29:04;;;;;;;21.27;10.48;;;10.80;99.90;;;;;;5071169;28;20060;-80
2022/10/14 02:31:33;;;;;;;27.77;10.63;;;10.80;99.90;;;;;;5062112;28;20472;-80
2022/10/14 02:34:03;;;;;;;24.58;10.10;;;10.80;99.90;;;;;;5052531;28;20063;-80
2022/10/14 02:36:30;;;;;;;45.55;12.75;;;10.80;99.90;;;;;;5052489;28;20484;-79
2022/10/14 02:38:59;;;;;;;101.13;12.25;;;10.80;99.90;;;;;;5052530;28;20512;-80
2022/10/14 02:41:29;;;;;;;40.63;9.93;;;11.10;99.90;;;;;;5057915;28;20112;-80
2022/10/14 02:43:55;;;;;;;89.25;11.30;;;10.70;99.90;;;;;;5071977;28;20059;-78
2022/10/14 02:46:21;;;;;;;38.13;9.20;;;10.80;99.90;;;;;;5053209;28;20041;-79
2022/10/14 02:48:50;;;;;;;124.45;13.00;;;10.70;99.90;;;;;;5052280;28;20049;-80
2022/10/14 02:51:16;;;;;;;47.85;9.70;;;10.70;99.90;;;;;;5052077;28;20048;-80
2022/10/14 02:53:42;;;;;;;163.93;15.18;;;10.60;99.90;;;;;;5060378;28;20048;-82
2022/10/14 02:56:12;;;;;;;22.92;10.77;;;10.60;99.90;;;;;;5072283;28;20484;-80
2022/10/14 02:58:37;;;;;;;22.65;10.55;;;11.00;99.90;;;;;;5070896;28;20040;-83
2022/10/14 03:01:08;;;;;;;51.45;11.70;;;10.50;99.90;;;;;;5053703;28;20063;-81
2022/10/14 03:04:33;;;;;;;125.88;14.45;;;10.60;99.90;;;;;;4989529;28;20164;-80
2022/10/14 03:06:58;;;;;;;52.67;11.57;;;10.40;99.90;;;;;;4989972;28;20051;-84
2022/10/14 03:09:24;;;;;;;38.58;11.10;;;11.10;99.90;;;;;;4989954;28;20058;-88
2022/10/14 03:11:50;;;;;;;74.35;11.23;;;10.60;99.90;;;;;;4981320;28;20105;-84
2022/10/14 03:14:15;;;;;;;19.58;9.82;;;10.50;99.90;;;;;;4973642;28;20878;-80
2022/10/14 03:16:41;;;;;;;49.75;11.35;;;11.00;99.90;;;;;;4990003;28;20517;-83
2022/10/14 03:19:06;;;;;;;68.63;12.68;;;10.50;99.90;;;;;;4989611;28;20054;-80
2022/10/14 03:21:32;;;;;;;42.65;11.45;;;10.60;99.90;;;;;;4989111;28;20060;-82
2022/10/14 03:23:57;;;;;;;78.47;12.95;;;10.50;99.90;;;;;;4989813;28;20497;-81
2022/10/14 03:26:25;;;;;;;101.00;12.95;;;10.50;99.90;;;;;;4989228;28;20524;-80
2022/10/14 03:28:50;;;;;;;55.28;14.40;;;10.50;99.90;;;;;;4989196;28;20108;-81
2022/10/14 03:31:16;;;;;;;62.38;13.48;;;10.50;99.90;;;;;;4973364;28;20456;-81
2022/10/14 03:33:41;;;;;;;67.88;12.98;;;10.50;99.90;;;;;;4989111;28;20094;-79
2022/10/14 03:36:07;;;;;;;70.65;12.10;;;10.50;99.90;;;;;;4989063;28;20050;-76
2022/10/14 03:38:33;;;;;;;34.88;11.70;;;10.50;99.90;;;;;;4989704;28;20102;-79
2022/10/14 03:40:58;;;;;;;61.58;12.13;;;10.70;99.90;;;;;;5027672;28;20045;-78
2022/10/14 03:43:24;;;;;;;39.08;11.15;;;10.50;99.90;;;;;;5050681;28;20060;-77
2022/10/14 03:45:50;;;;;;;39.53;11.57;;;10.50;99.90;;;;;;5056461;28;20040;-79
2022/10/14 03:48:15;;;;;;;21.42;10.10;;;10.70;99.90;;;;;;5070388;28;20548;-80
2022/10/14 03:50:41;;;;;;;48.00;11.77;;;10.40;99.90;;;;;;5069842;28;20096;-80
2022/10/14 03:53:07;;;;;;;34.65;10.85;;;10.40;99.90;;;;;;5070643;28;20041;-80
2022/10/14 03:55:32;;;;;;;29.17;11.30;;;10.70;99.90;;;;;;5069300;28;20040;-81
2022/10/14 03:57:58;;;;;;;24.77;10.90;;;10.40;99.90;;;;;;5070426;28;20044;-80
2022/10/14 04:00:23;;;;;;;61.13;12.85;;;10.40;99.90;;;;;;5070796;28;20671;-79
2022/10/14 04:02:49;;;;;;;131.57;12.57;;;10.40;99.90;;;;;;5070410;28;20049;-81
2022/10/14 04:05:15;;;;;;;37.00;9.95;;;10.30;99.90;;;;;;5070088;28;20047;-79
2022/10/14 04:07:40;;;;;;;54.30;10.30;;;10.70;99.90;;;;;;5070048;28;20403;-79
2022/10/14 04:10:07;;;;;;;112.97;12.48;;;10.20;99.90;;;;;;5070596;28;20049;-80
2022/10/14 04:12:33;;;;;;;48.28;9.80;;;10.20;99.90;;;;;;5070486;28;20066;-77
2022/10/14 04:14:59;;;;;;;28.70;8.70;;;10.20;99.90;;;;;;5068591;28;20578;-76
2022/10/14 04:17:24;;;;;;;20.92;8.75;;;10.20;99.90;;;;;;5070156;28;20032;-80
2022/10/14 04:19:50;;;;;;;36.97;9.82;;;10.50;99.90;;;;;;5070349;28;20040;-77
2022/10/14 04:22:17;;;;;;;41.55;11.07;;;10.80;99.90;;;;;;5069984;28;20075;-78
2022/10/14 04:24:43;;;;;;;72.85;10.90;;;10.20;99.90;;;;;;5070513;28;20075;-78
2022/10/14 04:27:09;;;;;;;98.13;11.80;;;10.20;99.90;;;;;;5069593;28;20531;-76
2022/10/14 04:29:34;;;;;;;54.90;11.55;;;10.10;99.90;;;;;;5069955;28;20052;-78
2022/10/14 04:32:00;;;;;;;74.75;13.02;;;10.40;99.90;;;;;;5070110;28;20135;-78
2022/10/14 04:34:26;;;;;;;28.50;11.80;;;10.10;99.90;;;;;;5070149;28;20062;-83
2022/10/14 04:36:52;;;;;;;75.50;13.95;;;10.10;99.90;;;;;;5069757;28;20131;-79
2022/10/14 04:39:18;;;;;;;51.20;10.60;;;10.10;99.90;;;;;;5069934;28;20055;-80
2022/10/14 04:41:44;;;;;;;139.68;13.80;;;10.10;99.90;;;;;;5070019;28;20467;-79
2022/10/14 04:44:09;;;;;;;45.03;12.25;;;10.10;99.90;;;;;;5070079;28;20040;-78
2022/10/14 04:46:35;;;;;;;55.75;11.73;;;10.60;99.90;;;;;;5069505;28;20412;-76
2022/10/14 04:49:00;;;;;;;31.63;11.98;;;10.10;99.90;;;;;;5069519;28;20044;-78
2022/10/14 04:51:26;;;;;;;67.93;12.95;;;10.10;99.90;;;;;;5054159;28;20048;-81
2022/10/14 04:54:01;;;;;;;75.47;11.82;;;10.50;99.90;;;;;;5049656;28;20045;-78
2022/10/14 04:56:26;;;;;;;72.63;13.30;;;10.30;99.90;;;;;;5062105;28;20048;-80
2022/10/14 04:58:52;;;;;;;51.95;11.40;;;10.10;99.90;;;;;;5068959;28;20051;-80
2022/10/14 05:01:18;;;;;;;50.42;11.80;;;10.10;99.90;;;;;;5069124;28;20478;-78
2022/10/14 05:03:44;;;;;;;95.95;11.95;;;10.10;99.90;;;;;;5069613;28;20112;-79
2022/10/14 05:06:09;;;;;;;168.88;17.33;;;10.10;99.90;;;;;;5069733;28;20102;-78
2022/10/14 05:08:36;;;;;;;103.35;13.88;;;10.10;99.90;;;;;;5069118;28;20817;-79
2022/10/14 05:11:02;;;;;;;22.70;10.20;;;10.10;99.90;;;;;;5065658;28;20114;-78
2022/10/14 05:13:28;;;;;;;27.48;10.23;;;10.10;99.90;;;;;;5049509;28;20045;-78
2022/10/14 05:15:54;;;;;;;27.98;10.35;;;10.00;99.90;;;;;;5060566;28;20080;-78
2022/10/14 05:18:20;;;;;;;70.13;11.48;;;10.00;99.90;;;;;;5069648;28;20106;-83
2022/10/14 05:20:45;;;;;;;21.67;10.45;;;10.00;99.90;;;;;;5069246;28;20128;-77
2022/10/14 05:23:11;;;;;;;116.72;12.70;;;10.10;99.90;;;;;;5069176;28;20060;-78
2022/10/14 05:25:37;;;;;;;28.83;9.43;;;10.00;99.90;;;;;;5069789;28;20138;-79
2022/10/14 05:28:02;;;;;;;41.60;9.93;;;10.10;99.90;;;;;;5069249;28;20518;-76
2022/10/14 05:30:28;;;;;;;26.02;9.57;;;10.00;99.90;;;;;;5069633;28;20036;-77
2022/10/14 05:32:54;;;;;;;35.90;9.15;;;10.00;99.90;;;;;;5069670;28;20067;-78
2022/10/14 05:35:20;;;;;;;65.82;10.80;;;10.40;99.90;;;;;;5069400;28;20411;-76
2022/10/14 05:37:45;;;;;;;36.97;9.43;;;10.00;99.90;;;;;;5069502;28;20098;-77
2022/10/14 05:40:11;;;;;;;47.58;10.77;;;10.00;99.90;;;;;;5068702;28;20048;-77
2022/10/14 05:42:37;;;;;;;25.67;10.23;;;10.20;99.90;;;;;;5069345;28;20126;-79
2022/10/14 05:45:03;;;;;;;49.70;11.02;;;10.10;99.90;;;;;;5069459;28;20048;-76
2022/10/14 05:47:29;;;;;;;29.50;10.68;;;10.20;99.90;;;;;;5069515;28;20403;-77
2022/10/14 05:49:55;;;;;;;26.77;11.02;;;10.10;99.90;;;;;;5067832;28;20055;-77
2022/10/14 05:52:20;;;;;;;39.05;11.88;;;10.20;99.90;;;;;;5069767;28;20044;-80
2022/10/14 05:54:46;;;;;;;37.45;12.90;;;10.10;99.90;;;;;;5069330;28;20530;-79
2022/10/14 05:57:12;;;;;;;54.03;13.43;;;10.40;99.90;;;;;;5051524;28;20048;-80
2022/10/14 05:59:50;;;;;;;42.47;13.85;;;10.10;99.90;;;;;;5053546;23;20512;-80
2022/10/14 06:02:15;;;;;;;27.05;13.48;;;10.20;99.90;;;;;;4994998;28;20069;-81
2022/10/14 06:04:41;;;;;;;62.28;14.25;;;10.70;99.90;;;;;;5030462;28;20041;-81
2022/10/14 06:07:09;;;;;;;37.75;14.75;;;10.20;99.90;;;;;;5029342;28;20052;-77
2022/10/14 06:09:35;;;;;;;38.47;13.73;;;10.20;99.90;;;;;;5011555;23;20161;-85
2022/10/14 06:12:01;;;;;;;108.93;15.02;;;10.20;99.90;;;;;;5012690;28;20080;-83
2022/10/14 06:14:37;;;;;;;58.92;15.27;;;10.70;99.90;;;;;;5013096;28;20042;-83
2022/10/14 06:17:03;;;;;;;70.03;15.70;;;10.20;99.90;;;;;;5013112;28;20455;-80
2022/10/14 06:19:30;;;;;;;45.90;14.82;;;10.80;99.90;;;;;;5027511;28;20054;-78
2022/10/14 06:21:55;;;;;;;134.60;19.02;;;10.20;99.90;;;;;;5012980;28;20050;-78
2022/10/14 06:24:21;;;;;;;176.48;19.33;;;10.40;99.90;;;;;;5012136;28;20042;-75
2022/10/14 06:26:47;;;;;;;53.08;15.07;;;10.50;99.90;;;;;;5012678;28;20061;-78
2022/10/14 06:29:13;;;;;;;48.13;15.68;;;10.30;99.90;;;;;;4995262;28;20049;-79
2022/10/14 06:31:39;;;;;;;82.25;16.83;;;10.30;99.90;;;;;;5012722;28;20125;-80
2022/10/14 06:34:05;;;;;;;56.47;15.90;;;10.60;99.90;;;;;;4995398;28;20141;-77
2022/10/14 06:36:31;;;;;;;41.08;16.48;;;10.40;99.90;;;;;;5010486;28;20061;-81
2022/10/14 06:38:57;;;;;;;111.65;19.42;;;10.30;99.90;;;;;;5012796;28;20042;-79
2022/10/14 06:41:23;;;;;;;72.00;19.02;;;10.40;99.90;;;;;;5012521;28;20112;-81
2022/10/14 06:43:48;;;;;;;46.35;18.48;;;10.40;99.90;;;;;;5012163;28;20124;-78
2022/10/14 06:46:14;;;;;;;102.03;18.85;;;10.40;99.90;;;;;;5011877;28;20129;-77
2022/10/14 06:48:39;;;;;;;86.75;20.88;;;10.60;99.90;;;;;;5012554;28;20467;-80
2022/10/14 06:51:05;;;;;;;103.25;21.52;;;10.40;99.90;;;;;;4994691;28;20049;-79
2022/10/14 06:53:31;;;;;;;57.15;18.50;;;10.50;99.90;;;;;;5011635;28;20050;-76
2022/10/14 06:56:02;;;;;;;50.85;17.88;;;10.50;99.90;;;;;;5012480;28;20054;-78
2022/10/14 06:58:28;;;;;;;74.07;19.15;;;10.50;99.90;;;;;;5011823;28;20057;-77
2022/10/14 07:00:54;;;;;;;76.93;19.83;;;10.70;99.90;;;;;;5011916;28;20060;-79
2022/10/14 07:03:20;;;;;;;68.93;20.27;;;10.50;99.90;;;;;;5012011;28;20042;-78
2022/10/14 07:05:46;;;;;;;64.85;19.33;;;10.60;99.90;;;;;;5012199;28;20045;-78
2022/10/14 07:08:12;;;;;;;55.17;20.02;;;10.60;99.90;;;;;;4978126;28;20049;-77
2022/10/14 07:10:38;;;;;;;65.35;19.90;;;10.60;99.90;;;;;;5015444;28;20038;-78
2022/10/14 07:13:03;;;;;;;65.82;21.75;;;10.60;99.90;;;;;;5019101;28;20381;-76
2022/10/14 07:15:32;;;;;;;61.85;21.80;;;10.70;99.90;;;;;;5012381;28;20108;-78
2022/10/14 07:17:58;;;;;;;52.50;20.58;;;10.70;99.90;;;;;;5020021;28;20441;-78
2022/10/14 07:20:24;;;;;;;75.35;22.23;;;10.80;99.90;;;;;;5011780;28;20049;-78
2022/10/14 07:22:54;;;;;;;94.57;23.25;;;10.80;99.90;;;;;;5010312;28;20473;-77
2022/10/14 07:25:20;;;;;;;54.55;21.25;;;11.00;99.90;;;;;;5011932;28;20054;-78
2022/10/14 07:27:45;;;;;;;72.45;21.13;;;10.90;99.90;;;;;;5011697;28;20061;-80
2022/10/14 07:30:11;;;;;;;71.57;20.98;;;11.30;99.90;;;;;;5011383;28;20456;-77
2022/10/14 07:32:37;;;;;;;64.90;20.25;;;10.90;99.90;;;;;;5011677;28;20053;-78
2022/10/14 07:35:03;;;;;;;53.40;18.55;;;11.00;99.90;;;;;;5011839;28;20084;-78
2022/10/14 07:37:28;;;;;;;56.03;19.05;;;11.00;99.90;;;;;;5011251;28;20045;-88
2022/10/14 07:39:54;;;;;;;58.90;20.23;;;11.00;99.90;;;;;;5011095;28;20646;-78
2022/10/14 07:42:20;;;;;;;50.65;18.75;;;11.00;99.90;;;;;;5010930;28;20076;-81
2022/10/14 07:44:46;;;;;;;55.67;20.73;;;11.00;99.90;;;;;;5010931;28;20103;-77
2022/10/14 07:47:11;;;;;;;53.00;19.50;;;11.10;99.90;;;;;;5011438;28;20046;-82
2022/10/14 07:49:38;;;;;;;52.40;18.63;;;11.10;99.90;;;;;;5011197;28;20045;-80
2022/10/14 07:52:03;;;;;;;56.67;21.27;;;11.10;99.90;;;;;;5011161;28;20128;-78
2022/10/14 07:54:31;;;;;;;59.53;20.75;;;11.10;99.90;;;;;;5011298;28;20129;-84
2022/10/14 07:56:57;;;;;;;63.97;21.42;;;11.10;99.90;;;;;;5011488;28;20053;-77
2022/10/14 07:59:24;;;;;;;68.50;23.00;;;11.50;99.90;;;;;;5010394;28;20042;-82
2022/10/14 08:01:51;;;;;;;59.72;21.55;;;11.20;99.90;;;;;;4992927;28;20448;-78
2022/10/14 08:04:17;;;;;;;64.35;21.35;;;11.20;99.90;;;;;;5010815;28;20092;-85
2022/10/14 08:06:45;;;;;;;64.18;22.10;;;11.20;99.90;;;;;;5010856;28;20493;-79
2022/10/14 08:09:11;;;;;;;63.88;22.27;;;11.30;99.90;;;;;;5011177;28;20119;-77
2022/10/14 08:11:37;;;;;;;64.95;22.23;;;11.70;99.90;;;;;;5010734;28;20516;-76
2022/10/14 08:14:04;;;;;;;59.42;22.48;;;11.30;99.90;;;;;;5010967;28;20053;-79
2022/10/14 08:16:32;;;;;;;60.95;22.48;;;11.60;99.90;;;;;;4992588;28;20499;-81
2022/10/14 08:19:00;;;;;;;52.95;22.92;;;11.70;99.90;;;;;;5010581;28;20046;-80
2022/10/14 08:21:27;;;;;;;52.55;21.75;;;11.40;99.90;;;;;;5009152;28;20117;-81
2022/10/14 08:23:53;;;;;;;61.00;23.02;;;11.40;99.90;;;;;;5010622;28;20092;-81
2022/10/14 08:26:30;;;;;;;49.97;21.70;;;11.40;99.90;;;;;;5009211;28;20050;-80
2022/10/14 08:28:57;;;;;;;57.08;22.55;;;11.50;99.90;;;;;;5010818;28;20112;-80
2022/10/14 08:31:23;;;;;;;60.05;23.88;;;11.80;99.90;;;;;;4992328;28;20485;-80
2022/10/14 08:33:48;;;;;;;49.85;23.02;;;11.80;99.90;;;;;;5010652;28;20056;-82
2022/10/14 08:36:15;;;;;;;61.28;23.77;;;11.60;99.90;;;;;;5025951;28;20046;-82
2022/10/14 08:38:41;;;;;;;57.45;23.98;;;12.10;99.90;;;;;;5009221;28;20054;-83
2022/10/14 08:41:15;;;;;;;54.65;24.45;;;12.10;99.90;;;;;;5009218;28;20065;-82
2022/10/14 08:44:05;;;;;;;58.38;24.95;;;11.60;99.90;;;;;;4992533;28;20046;-81
2022/10/14 08:46:44;;;;;;;51.17;24.52;;;11.70;99.90;;;;;;5025588;28;20112;-80
2022/10/14 08:49:33;;;;;;;57.33;24.55;;;11.70;99.90;;;;;;4992496;28;20602;-81
2022/10/14 08:52:04;;;;;;;58.72;25.95;;;12.30;99.90;;;;;;5010276;28;20523;-82
2022/10/14 08:54:43;;;;;;;61.30;26.48;;;11.80;99.90;;;;;;5010307;28;20056;-81
2022/10/14 08:57:23;;;;;;;60.65;26.33;;;11.80;99.90;;;;;;5010349;28;20060;-84
2022/10/14 08:59:49;;;;;;;64.18;26.70;;;11.90;99.90;;;;;;5025438;28;20112;-81
2022/10/14 09:02:31;;;;;;;57.58;25.88;;;12.10;99.90;;;;;;5010347;28;20386;-80
2022/10/14 09:04:58;;;;;;;54.55;24.90;;;12.00;99.90;;;;;;5012825;28;20113;-82
2022/10/14 09:07:24;;;;;;;55.88;25.85;;;12.00;99.90;;;;;;5010692;28;20050;-84
2022/10/14 09:09:55;;;;;;;52.10;25.58;;;12.00;99.90;;;;;;5010094;28;20107;-81
2022/10/14 09:12:27;;;;;;;51.03;25.13;;;12.00;99.90;;;;;;4991841;28;20054;-82
2022/10/14 09:15:20;;;;;;;57.50;25.25;;;12.50;99.90;;;;;;4992159;28;20048;-81
2022/10/14 09:17:55;;;;;;;53.47;24.42;;;12.10;99.90;;;;;;5010812;28;20050;-84
2022/10/14 09:20:23;;;;;;;45.65;23.23;;;12.20;99.90;;;;;;5010014;28;20042;-80
2022/10/14 09:23:09;;;;;;;47.30;24.95;;;12.10;99.90;;;;;;5010115;28;20061;-80
2022/10/14 09:25:39;;;;;;;52.90;24.58;;;12.20;99.90;;;;;;5025386;28;20054;-81
2022/10/14 09:28:05;;;;;;;51.58;25.05;;;12.20;99.90;;;;;;5010033;28;20041;-81
2022/10/14 09:30:35;;;;;;;51.47;25.80;;;12.20;99.90;;;;;;5010260;28;20730;-80
2022/10/14 09:33:02;;;;;;;50.70;26.10;;;12.30;99.90;;;;;;5010105;28;20053;-82
2022/10/14 09:35:41;;;;;;;48.08;24.83;;;12.50;99.90;;;;;;5009880;28;20046;-80
2022/10/14 09:38:06;;;;;;;50.38;24.85;;;12.30;99.90;;;;;;5010343;28;20053;-81
2022/10/14 09:40:39;;;;;;;57.08;26.58;;;12.30;99.90;;;;;;4992205;28;20061;-83
2022/10/14 09:43:08;;;;;;;49.80;24.80;;;12.40;99.90;;;;;;4992168;28;20045;-81
2022/10/14 09:45:51;;;;;;;49.58;23.88;;;12.40;99.90;;;;;;4994186;28;20533;-82
2022/10/14 09:48:37;;;;;;;46.95;25.15;;;12.40;99.90;;;;;;5013783;28;20045;-81
2022/10/14 09:51:09;;;;;;;50.90;25.13;;;12.50;99.90;;;;;;5011840;28;20509;-82
2022/10/14 09:53:50;;;;;;;46.17;24.65;;;12.50;99.90;;;;;;5013694;28;20045;-82
2022/10/14 09:56:30;;;;;;;45.30;24.33;;;12.50;99.90;;;;;;5013490;28;20129;-82
2022/10/14 09:58:57;;;;;;;48.92;25.02;;;12.50;99.90;;;;;;5013953;28;20053;-78
2022/10/14 10:01:31;;;;;;;51.58;25.40;;;12.70;99.90;;;;;;5029144;28;20116;-81
2022/10/14 10:04:46;;;;;;;52.70;24.63;;;12.60;99.90;;;;;;5029325;28;20119;-79
2022/10/14 10:07:32;;;;;;;56.50;25.60;;;12.60;99.90;;;;;;4993790;28;20080;-82
2022/10/14 10:10:00;;;;;;;55.83;24.60;;;12.80;99.90;;;;;;4979863;28;20413;-82
2022/10/14 10:12:34;;;;;;;46.60;24.92;;;12.70;99.90;;;;;;5013808;28;20136;-81
2022/10/14 10:15:02;;;;;;;47.75;24.48;;;13.00;99.90;;;;;;5013673;28;20134;-80
2022/10/14 10:17:31;;;;;;;45.90;23.63;;;12.90;99.90;;;;;;4996059;28;20124;-80
2022/10/14 10:20:19;;;;;;;45.05;22.23;;;12.80;99.90;;;;;;5013947;28;20048;-80
2022/10/14 10:22:45;;;;;;;42.22;21.95;;;12.80;99.90;;;;;;5012887;28;20057;-82
2022/10/14 10:25:13;;;;;;;37.85;19.77;;;12.80;99.90;;;;;;5013301;28;20048;-81
2022/10/14 10:27:41;;;;;;;37.38;19.42;;;12.90;99.90;;;;;;5013009;28;20223;-83
2022/10/14 10:30:27;;;;;;;31.92;17.75;;;12.90;99.90;;;;;;4995263;28;20104;-78
2022/10/14 10:33:08;;;;;;;35.03;18.75;;;12.90;99.90;;;;;;4995076;28;20496;-81
2022/10/14 10:35:47;;;;;;;32.35;17.45;;;12.90;99.90;;;;;;4995529;28;20045;-81
2022/10/14 10:38:30;;;;;;;32.10;17.10;;;13.10;99.90;;;;;;5011230;28;20042;-81
2022/10/14 10:41:07;;;;;;;28.48;16.05;;;13.00;99.90;;;;;;5013129;28;20076;-81
2022/10/14 10:43:48;;;;;;;29.95;16.23;;;13.10;99.90;;;;;;5013036;28;20050;-80
2022/10/14 10:46:18;;;;;;;28.90;15.43;;;13.10;99.90;;;;;;5012896;28;20041;-81
2022/10/14 10:48:56;;;;;;;27.88;14.00;;;13.10;99.90;;;;;;5012454;28;20108;-80
2022/10/14 10:51:39;;;;;;;26.52;13.55;;;13.20;99.90;;;;;;5012723;28;20046;-81
2022/10/14 10:54:22;;;;;;;23.80;13.50;;;13.10;99.90;;;;;;5011873;28;20827;-81
2022/10/14 10:57:11;;;;;;;21.42;13.00;;;13.10;99.90;;;;;;5011084;28;20046;-83
2022/10/14 11:00:02;;;;;;;26.40;13.40;;;13.10;99.90;;;;;;5012677;28;20053;-82
2022/10/14 11:02:49;;;;;;;17.33;10.20;;;13.10;99.90;;;;;;5012270;28;20103;-84
2022/10/14 11:05:42;;;;;;;21.20;10.65;;;13.20;99.90;;;;;;5011793;28;20081;-83
2022/10/14 11:14:17;;;;;;;18.67;10.40;;;13.30;99.90;;;;;;5006226;28;20058;-79
2022/10/14 11:17:21;;;;;;;18.25;10.13;;;13.20;99.90;;;;;;5011803;28;20152;-80
2022/10/14 11:20:10;;;;;;;15.85;9.95;;;13.30;99.90;;;;;;5011790;28;20057;-81
2022/10/14 11:22:49;;;;;;;18.42;10.13;;;13.30;99.90;;;;;;5026638;28;20056;-84
2022/10/14 11:25:35;;;;;;;18.77;10.57;;;13.40;99.90;;;;;;4996419;28;20046;-80
2022/10/14 11:28:34;;;;;;;17.75;9.95;;;13.60;99.90;;;;;;4994150;28;20088;-79
2022/10/14 11:31:27;;;;;;;16.08;9.60;;;13.60;99.90;;;;;;5012517;28;20115;-84
2022/10/14 11:34:20;;;;;;;15.30;8.82;;;13.60;99.90;;;;;;5012031;28;20049;-88
2022/10/14 11:36:48;;;;;;;16.70;9.00;;;13.60;99.90;;;;;;5011833;28;20500;-85
2022/10/14 11:39:26;;;;;;;16.95;10.00;;;13.80;99.90;;;;;;4994390;28;20057;-88
2022/10/14 11:42:23;;;;;;;15.35;8.77;;;13.70;99.90;;;;;;5011761;28;20065;-82
2022/10/14 11:45:16;;;;;;;14.48;8.30;;;13.70;99.90;;;;;;5011952;28;20133;-87
2022/10/14 11:47:44;;;;;;;19.60;8.25;;;13.80;99.90;;;;;;5011160;28;20058;-81
2022/10/14 11:50:18;;;;;;;12.07;7.07;;;13.60;99.90;;;;;;5011749;28;20076;-83
2022/10/14 11:52:56;;;;;;;12.63;7.30;;;13.70;99.90;;;;;;5011486;28;20053;-81
2022/10/14 11:55:23;;;;;;;15.23;7.35;;;13.70;99.90;;;;;;5010580;28;20046;-82
2022/10/14 11:58:02;;;;;;;11.02;6.40;;;13.70;99.90;;;;;;5011462;28;20253;-82
2022/10/14 12:00:32;;;;;;;11.50;6.97;;;13.70;99.90;;;;;;5011512;28;20048;-83
2022/10/14 12:03:09;;;;;;;12.02;6.90;;;13.80;99.90;;;;;;5011540;28;20497;-83
2022/10/14 12:05:35;;;;;;;14.18;7.68;;;13.70;99.90;;;;;;5011425;28;20042;-89
2022/10/14 12:08:33;;;;;;;16.05;7.60;;;13.80;99.90;;;;;;4993645;28;20449;-88
2022/10/14 12:11:18;;;;;;;12.07;7.25;;;13.80;99.90;;;;;;5011270;28;20049;-84
2022/10/14 12:13:51;;;;;;;13.60;7.85;;;13.80;99.90;;;;;;5011199;28;20493;-87
2022/10/14 12:16:19;;;;;;;12.57;7.18;;;14.00;99.90;;;;;;5011186;28;20061;-88
2022/10/14 12:18:52;;;;;;;13.60;8.00;;;13.80;99.90;;;;;;5009494;28;20069;-91
2022/10/14 12:21:27;;;;;;;13.35;7.32;;;13.80;99.90;;;;;;5011223;28;20635;-83
2022/10/14 12:24:09;;;;;;;13.65;7.22;;;13.80;99.90;;;;;;5011347;28;20056;-87
2022/10/14 12:26:55;;;;;;;13.40;7.13;;;13.80;99.90;;;;;;5010809;28;20149;-85
2022/10/14 12:29:54;;;;;;;11.68;7.63;;;13.80;99.90;;;;;;5011364;28;20147;-87
2022/10/14 12:32:29;;;;;;;11.38;7.68;;;13.80;99.90;;;;;;4972470;28;20506;-88
2022/10/14 12:34:56;;;;;;;13.98;7.15;;;13.70;99.90;;;;;;4972869;28;20054;-89
2022/10/14 12:37:30;;;;;;;13.38;7.47;;;13.90;99.90;;;;;;4973125;28;20409;-85
2022/10/14 12:40:02;;;;;;;13.80;7.78;;;14.00;99.90;;;;;;4972706;28;20137;-88
2022/10/14 12:42:59;;;;;;;12.35;6.85;;;13.80;99.90;;;;;;4988961;28;20049;-92
2022/10/14 12:45:27;;;;;;;13.60;7.60;;;13.70;99.90;;;;;;4931195;29;20059;-82
2022/10/14 12:48:34;;;;;;;12.02;8.13;;;13.70;99.90;;;;;;4931148;29;20146;-83
2022/10/14 12:51:20;;;;;;;14.45;8.65;;;13.80;99.90;;;;;;4876071;29;20152;-81
2022/10/14 12:54:04;;;;;;;12.85;8.43;;;14.00;99.90;;;;;;4882731;29;20052;-86
2022/10/14 12:56:51;;;;;;;13.30;8.20;;;13.80;99.90;;;;;;4892874;29;20056;-80